createdAt,value
2023-01-20T00:00:01.366Z,99955.48
2023-01-20T00:02:34.132Z,99949.79
2023-01-20T00:05:07.732Z,99947.77
2023-01-20T00:07:39.996Z,99952.13
2023-01-20T00:10:14.003Z,99953.37
2023-01-20T00:12:46.312Z,99959.40
2023-01-20T00:15:18.671Z,99955.33
2023-01-20T00:17:51.043Z,99953.50
2023-01-20T00:20:23.278Z,99948.94
2023-01-20T00:22:55.793Z,99946.54
2023-01-20T00:25:28.044Z,99947.86
2023-01-20T00:28:00.308Z,99942.55
2023-01-20T00:30:32.904Z,99944.45
2023-01-20T00:33:05.238Z,99948.52
2023-01-20T00:35:39.783Z,99942.35
2023-01-20T00:38:12.115Z,99935.33
2023-01-20T00:40:44.460Z,99931.23
2023-01-20T00:43:16.762Z,99936.65
2023-01-20T00:45:49.091Z,99935.69
2023-01-20T00:48:21.493Z,99934.63
2023-01-20T00:50:53.921Z,99934.02
2023-01-20T00:53:27.932Z,99931.88
2023-01-20T00:56:00.311Z,99930.89
2023-01-20T00:58:32.643Z,99940.56
2023-01-20T01:01:05.163Z,99935.61
2023-01-20T01:03:37.518Z,99922.67
2023-01-20T01:06:12.244Z,99923.40
2023-01-20T01:08:45.112Z,99932.10
2023-01-20T01:11:17.366Z,99933.03
2023-01-20T01:13:49.692Z,99933.73
2023-01-20T01:16:22.077Z,99921.78
2023-01-20T01:18:55.994Z,99915.41
2023-01-20T01:21:28.448Z,99924.32
2023-01-20T01:24:00.928Z,99937.37
2023-01-20T01:26:34.355Z,99927.92
2023-01-20T01:29:06.630Z,99909.48
2023-01-20T01:31:39.125Z,99905.88
2023-01-20T01:34:11.572Z,99915.53
2023-01-20T01:36:44.052Z,99917.98
2023-01-20T01:39:16.283Z,99911.83
2023-01-20T01:41:48.718Z,99922.27
2023-01-20T01:44:21.433Z,99917.38
2023-01-20T01:46:53.731Z,99916.64
2023-01-20T01:49:30.587Z,99915.48
2023-01-20T01:52:10.229Z,99917.73
2023-01-20T01:54:45.756Z,99916.69
2023-01-20T01:57:18.259Z,99914.77
2023-01-20T01:59:50.559Z,99912.19
2023-01-20T02:02:24.137Z,99909.19
2023-01-20T02:04:56.815Z,99909.33
2023-01-20T02:07:29.528Z,99909.39
2023-01-20T02:10:02.346Z,99903.13
2023-01-20T02:12:34.722Z,99902.52
2023-01-20T02:15:08.881Z,99898.18
2023-01-20T02:17:47.465Z,99900.82
2023-01-20T02:20:58.637Z,99906.64
2023-01-20T02:23:46.174Z,99910.44
2023-01-20T02:26:47.361Z,99896.92
2023-01-20T02:29:48.600Z,99889.19
2023-01-20T02:32:36.293Z,99884.60
2023-01-20T02:35:16.317Z,99885.23
2023-01-20T02:37:55.805Z,99871.93
2023-01-20T02:40:40.812Z,99858.92
2023-01-20T02:43:19.243Z,99865.34
2023-01-20T02:45:57.802Z,99877.97
2023-01-20T02:48:36.320Z,99875.94
2023-01-20T02:51:14.453Z,99860.69
2023-01-20T02:53:51.683Z,99849.02
2023-01-20T02:56:27.944Z,99838.75
2023-01-20T02:59:04.417Z,99832.59
2023-01-20T03:01:41.470Z,99838.10
2023-01-20T03:04:19.065Z,99829.96
2023-01-20T03:06:55.877Z,99830.28
2023-01-20T03:09:34.469Z,99829.98
2023-01-20T03:12:15.347Z,99827.88
2023-01-20T03:14:47.716Z,99833.80
2023-01-20T03:17:20.200Z,99826.20
2023-01-20T03:19:52.724Z,99831.33
2023-01-20T03:22:25.552Z,99828.67
2023-01-20T03:25:00.130Z,99829.85
2023-01-20T03:27:32.916Z,99828.30
2023-01-20T03:30:07.317Z,99824.27
2023-01-20T03:32:39.791Z,99825.48
2023-01-20T03:35:14.271Z,99823.96
2023-01-20T03:37:47.360Z,99834.08
2023-01-20T03:40:20.589Z,99824.52
2023-01-20T03:42:59.768Z,99831.52
2023-01-20T03:45:39.339Z,99834.09
2023-01-20T03:48:18.934Z,99827.38
2023-01-20T03:50:58.458Z,99819.68
2023-01-20T03:53:37.574Z,99811.19
2023-01-20T03:56:16.026Z,99797.70
2023-01-20T03:58:52.249Z,99803.11
2023-01-20T04:01:28.710Z,99798.80
2023-01-20T04:04:03.317Z,99798.77
2023-01-20T04:06:37.922Z,99788.95
2023-01-20T04:09:13.989Z,99784.86
2023-01-20T04:11:46.287Z,99782.98
2023-01-20T04:14:18.747Z,99778.02
2023-01-20T04:16:56.537Z,99784.11
2023-01-20T04:19:29.442Z,99791.25
2023-01-20T04:22:07.985Z,99793.59
2023-01-20T04:24:46.104Z,99793.05
2023-01-20T04:27:18.410Z,99788.26
2023-01-20T04:29:50.780Z,99793.48
2023-01-20T04:32:23.242Z,99800.62
2023-01-20T04:34:55.565Z,99806.21
2023-01-20T04:37:27.828Z,99802.59
2023-01-20T04:40:00.148Z,99800.29
2023-01-20T04:42:32.749Z,99800.52
2023-01-20T04:45:05.549Z,99800.91
2023-01-20T04:47:37.953Z,99794.04
2023-01-20T04:50:12.433Z,99796.27
2023-01-20T04:52:45.160Z,99798.98
2023-01-20T04:55:17.640Z,99800.86
2023-01-20T04:57:51.555Z,99799.02
2023-01-20T05:00:24.482Z,99804.32
2023-01-20T05:02:59.851Z,99806.77
2023-01-20T05:05:32.377Z,99799.36
2023-01-20T05:08:05.521Z,99801.50
2023-01-20T05:10:38.279Z,99808.27
2023-01-20T05:13:10.683Z,99809.45
2023-01-20T05:15:44.033Z,99810.16
2023-01-20T05:18:16.426Z,99807.84
2023-01-20T05:20:50.123Z,99804.30
2023-01-20T05:23:22.471Z,99808.88
2023-01-20T05:25:55.179Z,99800.34
2023-01-20T05:28:27.547Z,99802.87
2023-01-20T05:30:59.947Z,99806.12
2023-01-20T05:33:32.304Z,99802.63
2023-01-20T05:36:08.362Z,99808.04
2023-01-20T05:38:40.760Z,99802.08
2023-01-20T05:41:13.182Z,99800.31
2023-01-20T05:43:45.351Z,99806.70
2023-01-20T05:46:17.628Z,99820.93
2023-01-20T05:48:49.901Z,99826.85
2023-01-20T05:51:22.185Z,99830.53
2023-01-20T05:53:54.531Z,99834.84
2023-01-20T05:56:27.069Z,99826.48
2023-01-20T05:58:59.382Z,99825.55
2023-01-20T06:01:31.779Z,99819.77
2023-01-20T06:04:04.210Z,99820.52
2023-01-20T06:06:36.672Z,99827.27
2023-01-20T06:09:11.040Z,99829.04
2023-01-20T06:11:43.484Z,99831.83
2023-01-20T06:14:15.816Z,99825.92
2023-01-20T06:16:48.180Z,99827.84
2023-01-20T06:19:20.424Z,99830.34
2023-01-20T06:21:53.799Z,99832.88
2023-01-20T06:24:26.156Z,99831.02
2023-01-20T06:26:58.423Z,99822.23
2023-01-20T06:29:31.947Z,99822.95
2023-01-20T06:32:04.411Z,99824.92
2023-01-20T06:34:36.790Z,99823.58
2023-01-20T06:37:09.039Z,99821.14
2023-01-20T06:39:41.351Z,99831.92
2023-01-20T06:42:13.761Z,99844.61
2023-01-20T06:44:46.352Z,99849.20
2023-01-20T06:47:18.722Z,99851.98
2023-01-20T06:49:51.215Z,99861.86
2023-01-20T06:52:23.541Z,99859.23
2023-01-20T06:54:55.785Z,99859.65
2023-01-20T06:57:28.135Z,99858.61
2023-01-20T07:00:00.485Z,99862.66
2023-01-20T07:02:32.935Z,99861.89
2023-01-20T07:05:08.261Z,99864.92
2023-01-20T07:07:40.597Z,99873.37
2023-01-20T07:10:14.715Z,99872.33
2023-01-20T07:12:47.083Z,99872.98
2023-01-20T07:15:19.528Z,99866.02
2023-01-20T07:17:52.170Z,99857.23
2023-01-20T07:20:24.506Z,99857.34
2023-01-20T07:22:56.801Z,99853.19
2023-01-20T07:25:29.343Z,99850.40
2023-01-20T07:28:01.572Z,99842.33
2023-01-20T07:30:33.779Z,99840.19
2023-01-20T07:33:06.307Z,99837.60
2023-01-20T07:35:38.689Z,99836.86
2023-01-20T07:38:11.005Z,99830.40
2023-01-20T07:40:43.502Z,99826.21
2023-01-20T07:43:15.902Z,99819.30
2023-01-20T07:45:48.375Z,99817.26
2023-01-20T07:48:20.876Z,99825.34
2023-01-20T07:51:02.862Z,99827.13
2023-01-20T07:53:36.852Z,99831.67
2023-01-20T07:56:12.488Z,99835.53
2023-01-20T07:58:46.294Z,99835.31
2023-01-20T08:01:21.012Z,99835.67
2023-01-20T08:03:54.035Z,99848.25
2023-01-20T08:06:27.757Z,99856.75
2023-01-20T08:09:03.179Z,99838.77
2023-01-20T08:11:34.082Z,99837.92
2023-01-20T08:14:06.581Z,99830.42
2023-01-20T08:16:38.969Z,99830.73
2023-01-20T08:19:11.300Z,99826.09
2023-01-20T08:21:43.617Z,99825.59
2023-01-20T08:24:15.939Z,99830.48
2023-01-20T08:26:48.259Z,99831.21
2023-01-20T08:29:20.603Z,99833.55
2023-01-20T08:31:52.996Z,99828.98
2023-01-20T08:34:25.580Z,99826.66
2023-01-20T08:36:58.209Z,99822.02
2023-01-20T08:39:30.611Z,99826.71
2023-01-20T08:42:03.283Z,99824.95
2023-01-20T08:44:35.584Z,99816.44
2023-01-20T08:47:08.083Z,99817.30
2023-01-20T08:49:40.350Z,99820.95
2023-01-20T08:52:30.343Z,99813.05
2023-01-20T08:55:02.716Z,99834.84
2023-01-20T08:57:35.101Z,99833.04
2023-01-20T09:00:11.123Z,99819.90
2023-01-20T09:02:43.766Z,99817.16
2023-01-20T09:05:16.690Z,99829.30
2023-01-20T09:07:49.222Z,99828.27
2023-01-20T09:10:22.360Z,99826.80
2023-01-20T09:12:54.791Z,99825.75
2023-01-20T09:15:27.118Z,99821.36
2023-01-20T09:18:00.073Z,99806.73
2023-01-20T09:20:32.513Z,99793.79
2023-01-20T09:23:05.509Z,99800.34
2023-01-20T09:25:37.797Z,99799.38
2023-01-20T09:28:10.020Z,99789.55
2023-01-20T09:30:43.135Z,99783.33
2023-01-20T09:33:16.666Z,99775.70
2023-01-20T09:35:57.172Z,99773.68
2023-01-20T09:38:47.792Z,99771.90
2023-01-20T09:41:45.597Z,99769.05
2023-01-20T09:44:40.124Z,99761.54
2023-01-20T09:47:26.705Z,99762.08
2023-01-20T09:50:31.258Z,99751.27
2023-01-20T09:53:15.678Z,99733.45
2023-01-20T09:55:52.801Z,99737.96
2023-01-20T09:58:33.311Z,99731.86
2023-01-20T10:01:14.329Z,99734.07
2023-01-20T10:03:54.328Z,99731.54
2023-01-20T10:06:32.971Z,99717.13
2023-01-20T10:09:10.940Z,99723.73
2023-01-20T10:11:47.606Z,99720.27
2023-01-20T10:14:24.190Z,99715.11
2023-01-20T10:17:04.778Z,99707.67
2023-01-20T10:19:45.008Z,99701.63
2023-01-20T10:22:23.686Z,99702.20
2023-01-20T10:25:05.644Z,99690.52
2023-01-20T10:27:43.836Z,99689.02
2023-01-20T10:30:18.434Z,99680.05
2023-01-20T10:32:59.847Z,99669.47
2023-01-20T10:35:38.237Z,99671.97
2023-01-20T10:38:21.191Z,99668.36
2023-01-20T10:40:58.635Z,99677.16
2023-01-20T10:43:31.877Z,99672.59
2023-01-20T10:46:18.351Z,99655.90
2023-01-20T10:49:19.286Z,99658.08
2023-01-20T10:52:05.262Z,99651.29
2023-01-20T10:54:44.344Z,99649.30
2023-01-20T10:57:17.869Z,99640.63
2023-01-20T10:59:54.017Z,99640.77
2023-01-20T11:02:29.605Z,99642.08
2023-01-20T11:05:01.104Z,99644.39
2023-01-20T11:07:35.690Z,99642.89
2023-01-20T11:10:18.155Z,99633.14
2023-01-20T11:12:54.908Z,99630.46
2023-01-20T11:15:31.226Z,99627.90
2023-01-20T11:18:29.083Z,99629.27
2023-01-20T11:21:04.433Z,99618.90
2023-01-20T11:23:40.807Z,99610.75
2023-01-20T11:26:22.367Z,99606.43
2023-01-20T11:28:57.193Z,99596.46
2023-01-20T11:31:40.887Z,99592.09
2023-01-20T11:34:26.747Z,99588.86
2023-01-20T11:37:19.267Z,99584.61
2023-01-20T11:40:03.515Z,99575.39
2023-01-20T11:42:46.545Z,99575.19
2023-01-20T11:45:34.817Z,99568.19
2023-01-20T11:48:18.115Z,99556.50
2023-01-20T11:50:56.298Z,99556.20
2023-01-20T11:53:31.772Z,99556.97
2023-01-20T11:56:07.102Z,99554.98
2023-01-20T11:58:54.818Z,99555.00
2023-01-20T12:01:29.552Z,99550.95
2023-01-20T12:04:38.344Z,99540.46
2023-01-20T12:07:16.215Z,99537.96
2023-01-20T12:09:52.561Z,99538.50
2023-01-20T12:12:33.734Z,99544.10
2023-01-20T12:15:13.253Z,99541.39
2023-01-20T12:17:59.839Z,99542.41
2023-01-20T12:20:53.677Z,99545.54
2023-01-20T12:23:46.140Z,99541.63
2023-01-20T12:26:21.399Z,99536.79
2023-01-20T12:29:01.585Z,99534.77
2023-01-20T12:31:34.668Z,99539.68
2023-01-20T12:34:12.356Z,99525.77
2023-01-20T12:37:01.329Z,99520.88
2023-01-20T12:39:48.879Z,99509.86
2023-01-20T12:42:59.122Z,99496.90
2023-01-20T12:45:48.226Z,99481.49
2023-01-20T12:48:43.613Z,99458.31
2023-01-20T12:51:28.561Z,99472.40
2023-01-20T12:54:48.311Z,99497.20
2023-01-20T12:57:49.054Z,99504.45
2023-01-20T13:00:35.336Z,99490.42
2023-01-20T13:03:35.034Z,99494.92
2023-01-20T13:06:42.420Z,99495.70
2023-01-20T13:09:30.292Z,99493.93
2023-01-20T13:12:13.971Z,99490.60
2023-01-20T13:14:50.369Z,99489.02
2023-01-20T13:17:29.524Z,99493.69
2023-01-20T13:20:06.130Z,99486.98
2023-01-20T13:22:39.509Z,99481.48
2023-01-20T13:25:19.210Z,99478.14
2023-01-20T13:27:54.696Z,99480.22
2023-01-20T13:30:48.150Z,99477.34
2023-01-20T13:33:35.337Z,99470.21
2023-01-20T13:36:19.811Z,99470.95
2023-01-20T13:39:12.946Z,99473.33
2023-01-20T13:41:52.359Z,99476.09
2023-01-20T13:44:38.145Z,99470.81
2023-01-20T13:47:12.366Z,99471.30
2023-01-20T13:49:55.175Z,99469.89
2023-01-20T13:53:09.124Z,99457.06
2023-01-20T13:55:59.319Z,99457.13
2023-01-20T13:58:33.598Z,99464.21
2023-01-20T14:01:09.023Z,99465.93
2023-01-20T14:03:43.206Z,99460.80
2023-01-20T14:06:26.216Z,99466.52
2023-01-20T14:08:58.447Z,99469.50
2023-01-20T14:11:32.287Z,99469.61
2023-01-20T14:14:22.877Z,99466.70
2023-01-20T14:16:57.247Z,99473.70
2023-01-20T14:19:32.560Z,99476.33
2023-01-20T14:22:18.428Z,99477.70
2023-01-20T14:24:52.741Z,99479.77
2023-01-20T14:27:28.206Z,99485.66
2023-01-20T14:30:14.908Z,99485.05
2023-01-20T14:32:48.200Z,99486.89
2023-01-20T14:35:29.061Z,99484.53
2023-01-20T14:38:02.145Z,99483.40
2023-01-20T14:40:36.104Z,99482.06
2023-01-20T14:43:19.615Z,99487.26
2023-01-20T14:45:54.310Z,99488.77
2023-01-20T14:48:34.868Z,99485.55
2023-01-20T14:51:11.503Z,99484.77
2023-01-20T14:53:45.660Z,99488.13
2023-01-20T14:56:22.912Z,99493.89
2023-01-20T14:58:58.313Z,99487.88
2023-01-20T15:01:30.709Z,99492.56
2023-01-20T15:04:06.139Z,99499.46
2023-01-20T15:06:38.380Z,99496.75
2023-01-20T15:09:33.665Z,99495.81
2023-01-20T15:12:39.658Z,99500.08
2023-01-20T15:15:20.511Z,99504.65
2023-01-20T15:18:19.952Z,99511.45
2023-01-20T15:21:11.660Z,99512.98
2023-01-20T15:23:52.662Z,99519.53
2023-01-20T15:26:31.311Z,99514.94
2023-01-20T15:29:03.719Z,99514.98
2023-01-20T15:31:36.072Z,99520.84
2023-01-20T15:34:09.340Z,99520.66
2023-01-20T15:36:41.772Z,99521.65
2023-01-20T15:39:14.498Z,99527.38
2023-01-20T15:41:48.989Z,99529.25
2023-01-20T15:44:21.738Z,99534.32
2023-01-20T15:46:57.119Z,99540.40
2023-01-20T15:49:28.124Z,99535.44
2023-01-20T15:52:00.606Z,99541.52
2023-01-20T15:54:32.985Z,99544.25
2023-01-20T15:57:09.749Z,99544.81
2023-01-20T15:59:45.521Z,99545.92
2023-01-20T16:02:21.463Z,99553.08
2023-01-20T16:04:53.924Z,99556.75
2023-01-20T16:07:26.358Z,99548.67
2023-01-20T16:09:58.578Z,99544.70
2023-01-20T16:12:30.942Z,99548.09
2023-01-20T16:15:03.289Z,99547.56
2023-01-20T16:17:36.125Z,99549.91
2023-01-20T16:20:18.137Z,99546.02
2023-01-20T16:22:51.526Z,99554.17
2023-01-20T16:25:24.924Z,99556.27
2023-01-20T16:27:57.309Z,99555.41
2023-01-20T16:30:30.090Z,99560.70
2023-01-20T16:33:02.481Z,99570.14
2023-01-20T16:35:35.219Z,99575.73
2023-01-20T16:38:07.566Z,99577.10
2023-01-20T16:40:45.671Z,99580.61
2023-01-20T16:43:18.836Z,99580.72
2023-01-20T16:45:55.338Z,99580.45
2023-01-20T16:48:29.404Z,99580.88
2023-01-20T16:51:05.569Z,99579.08
2023-01-20T16:53:37.936Z,99582.80
2023-01-20T16:56:15.764Z,99584.65
2023-01-20T16:58:50.521Z,99592.68
2023-01-20T17:01:24.841Z,99599.40
2023-01-20T17:03:59.273Z,99598.40
2023-01-20T17:06:33.679Z,99600.92
2023-01-20T17:09:07.238Z,99592.36
2023-01-20T17:11:41.621Z,99590.07
2023-01-20T17:14:15.713Z,99596.39
2023-01-20T17:16:48.112Z,99600.31
2023-01-20T17:19:21.296Z,99592.60
2023-01-20T17:21:54.846Z,99595.95
2023-01-20T17:24:27.560Z,99597.02
2023-01-20T17:26:59.791Z,99601.42
2023-01-20T17:29:32.959Z,99606.72
2023-01-20T17:32:05.603Z,99612.68
2023-01-20T17:34:37.978Z,99616.34
2023-01-20T17:37:10.429Z,99620.92
2023-01-20T17:39:42.743Z,99618.36
2023-01-20T17:42:17.556Z,99626.33
2023-01-20T17:44:50.137Z,99631.70
2023-01-20T17:47:22.458Z,99631.34
2023-01-20T17:49:54.780Z,99629.63
2023-01-20T17:52:27.154Z,99627.92
2023-01-20T17:54:59.470Z,99628.82
2023-01-20T17:57:32.689Z,99628.13
2023-01-20T18:00:06.630Z,99626.17
2023-01-20T18:02:39.112Z,99624.89
2023-01-20T18:05:11.908Z,99627.52
2023-01-20T18:07:44.198Z,99629.14
2023-01-20T18:10:16.857Z,99640.34
2023-01-20T18:12:49.458Z,99641.77
2023-01-20T18:15:22.616Z,99645.09
2023-01-20T18:17:54.969Z,99643.14
2023-01-20T18:20:27.272Z,99643.38
2023-01-20T18:23:00.012Z,99650.74
2023-01-20T18:25:33.195Z,99653.70
2023-01-20T18:28:05.737Z,99656.85
2023-01-20T18:30:38.235Z,99660.70
2023-01-20T18:33:10.525Z,99672.59
2023-01-20T18:35:42.884Z,99679.88
2023-01-20T18:38:15.165Z,99703.95
2023-01-20T18:40:47.744Z,99699.63
2023-01-20T18:43:19.988Z,99703.30
2023-01-20T18:45:55.351Z,99715.77
2023-01-20T18:48:28.004Z,99714.17
2023-01-20T18:51:03.098Z,99724.11
2023-01-20T18:53:35.567Z,99727.55
2023-01-20T18:56:10.979Z,99741.16
2023-01-20T18:58:47.275Z,99753.23
2023-01-20T19:01:21.398Z,99772.95
2023-01-20T19:03:54.039Z,99784.02
2023-01-20T19:06:28.168Z,99797.94
2023-01-20T19:09:01.281Z,99800.15
2023-01-20T19:11:36.209Z,99810.65
2023-01-20T19:14:11.190Z,99812.48
2023-01-20T19:16:45.661Z,99823.27
2023-01-20T19:19:19.356Z,99826.44
2023-01-20T19:21:54.529Z,99835.16
2023-01-20T19:24:29.263Z,99842.05
2023-01-20T19:27:03.205Z,99854.22
2023-01-20T19:29:35.565Z,99855.93
2023-01-20T19:32:08.089Z,99858.65
2023-01-20T19:34:43.716Z,99857.09
2023-01-20T19:37:16.009Z,99865.80
2023-01-20T19:39:50.418Z,99866.84
2023-01-20T19:42:25.754Z,99880.69
2023-01-20T19:44:58.369Z,99892.65
2023-01-20T19:47:33.612Z,99892.31
2023-01-20T19:50:06.845Z,99891.40
2023-01-20T19:52:39.398Z,99899.73
2023-01-20T19:55:11.742Z,99910.28
2023-01-20T19:57:43.943Z,99914.87
2023-01-20T20:00:18.510Z,99910.67
2023-01-20T20:02:53.880Z,99910.12
2023-01-20T20:05:26.209Z,99912.72
2023-01-20T20:07:59.985Z,99910.70
2023-01-20T20:10:32.209Z,99914.02
2023-01-20T20:13:04.581Z,99906.80
2023-01-20T20:15:36.961Z,99902.86
2023-01-20T20:18:09.570Z,99909.54
2023-01-20T20:20:43.436Z,99913.55
2023-01-20T20:23:18.041Z,99910.77
2023-01-20T20:25:56.083Z,99911.89
2023-01-20T20:28:30.241Z,99924.73
2023-01-20T20:31:08.245Z,99931.22
2023-01-20T20:33:40.937Z,99945.34
2023-01-20T20:36:14.317Z,99953.10
2023-01-20T20:38:51.300Z,99964.77
2023-01-20T20:41:25.926Z,99973.02
2023-01-20T20:43:58.693Z,99982.96
2023-01-20T20:46:31.069Z,99980.77
2023-01-20T20:49:03.968Z,99982.66
2023-01-20T20:51:37.017Z,99995.15
2023-01-20T20:54:13.204Z,100003.34
2023-01-20T20:56:46.490Z,100015.46
2023-01-20T20:59:23.229Z,100029.73
2023-01-20T21:01:55.577Z,100037.77
2023-01-20T21:04:30.214Z,100031.35
2023-01-20T21:07:02.503Z,100038.20
2023-01-20T21:09:38.070Z,100032.48
2023-01-20T21:12:10.611Z,100039.01
2023-01-20T21:14:43.460Z,100044.12
2023-01-20T21:17:16.196Z,100046.72
2023-01-20T21:19:52.214Z,100044.23
2023-01-20T21:22:24.754Z,100050.96
2023-01-20T21:24:57.057Z,100057.80
2023-01-20T21:27:29.466Z,100068.60
2023-01-20T21:30:01.843Z,100072.09
2023-01-20T21:32:34.108Z,100077.76
2023-01-20T21:35:07.558Z,100079.34
2023-01-20T21:37:40.105Z,100085.76
2023-01-20T21:40:14.857Z,100087.16
2023-01-20T21:42:47.364Z,100090.97
2023-01-20T21:45:19.756Z,100092.94
2023-01-20T21:47:52.099Z,100111.56
2023-01-20T21:50:41.764Z,100117.05
2023-01-20T21:53:16.334Z,100116.04
2023-01-20T21:55:48.635Z,100125.98
2023-01-20T21:58:20.929Z,100137.91
2023-01-20T22:00:57.325Z,100139.14
2023-01-20T22:03:29.609Z,100148.34
2023-01-20T22:06:03.590Z,100148.52
2023-01-20T22:08:35.887Z,100154.14
2023-01-20T22:11:08.415Z,100154.02
2023-01-20T22:13:40.643Z,100152.10
2023-01-20T22:16:13.127Z,100151.62
2023-01-20T22:18:48.041Z,100159.05
2023-01-20T22:21:20.864Z,100165.05
2023-01-20T22:23:53.738Z,100170.49
2023-01-20T22:26:25.973Z,100178.61
2023-01-20T22:28:58.359Z,100181.13
2023-01-20T22:31:32.106Z,100184.58
2023-01-20T22:34:06.514Z,100177.55
2023-01-20T22:36:39.175Z,100178.42
2023-01-20T22:39:14.204Z,100188.05
2023-01-20T22:41:46.443Z,100183.78
2023-01-20T22:44:18.980Z,100179.33
2023-01-20T22:46:51.525Z,100180.52
2023-01-20T22:49:23.940Z,100179.56
2023-01-20T22:51:57.945Z,100186.70
2023-01-20T22:54:30.353Z,100187.54
2023-01-20T22:57:02.598Z,100198.67
2023-01-20T22:59:35.803Z,100204.15
2023-01-20T23:02:08.365Z,100202.29
2023-01-20T23:04:40.723Z,100206.61
2023-01-20T23:07:12.990Z,100205.08
2023-01-20T23:09:46.492Z,100212.60
2023-01-20T23:12:18.906Z,100215.88
2023-01-20T23:15:00.022Z,100213.61
2023-01-20T23:17:33.890Z,100221.89
2023-01-20T23:20:07.370Z,100220.12
2023-01-20T23:22:39.654Z,100219.64
2023-01-20T23:25:12.540Z,100228.20
2023-01-20T23:27:44.828Z,100228.05
2023-01-20T23:30:18.397Z,100232.67
2023-01-20T23:32:50.841Z,100232.80
2023-01-20T23:35:23.130Z,100234.16
2023-01-20T23:37:55.494Z,100230.49
2023-01-20T23:40:28.590Z,100232.41
2023-01-20T23:43:00.858Z,100230.63
2023-01-20T23:45:33.234Z,100240.73
2023-01-20T23:48:05.900Z,100241.68
2023-01-20T23:50:38.254Z,100251.73
2023-01-20T23:53:10.578Z,100256.67
2023-01-20T23:55:42.878Z,100259.02
2023-01-20T23:58:15.242Z,100266.83
